sensor_id;sensor_type;location;lat;lon;timestamp;temperature;humidity
74540;SHT31;66042;51.090;-115.340;2023-09-19T00:00:47;16.77;30.26
74540;SHT31;66042;51.090;-115.340;2023-09-19T00:03:14;16.75;30.16
74540;SHT31;66042;51.090;-115.340;2023-09-19T00:05:43;16.74;30.32
74540;SHT31;66042;51.090;-115.340;2023-09-19T00:08:11;16.75;29.88
74540;SHT31;66042;51.090;-115.340;2023-09-19T00:10:41;16.74;29.87
74540;SHT31;66042;51.090;-115.340;2023-09-19T00:13:09;16.66;29.40
74540;SHT31;66042;51.090;-115.340;2023-09-19T00:15:40;16.60;29.60
74540;SHT31;66042;51.090;-115.340;2023-09-19T00:18:14;16.55;29.56
74540;SHT31;66042;51.090;-115.340;2023-09-19T00:20:41;16.49;29.73
74540;SHT31;66042;51.090;-115.340;2023-09-19T00:23:07;16.45;29.31
74540;SHT31;66042;51.090;-115.340;2023-09-19T00:25:35;16.38;29.13
74540;SHT31;66042;51.090;-115.340;2023-09-19T00:28:03;16.34;29.27
74540;SHT31;66042;51.090;-115.340;2023-09-19T00:30:32;16.27;29.06
74540;SHT31;66042;51.090;-115.340;2023-09-19T00:33:00;16.20;28.95
74540;SHT31;66042;51.090;-115.340;2023-09-19T00:35:31;16.15;29.21
74540;SHT31;66042;51.090;-115.340;2023-09-19T00:37:58;16.09;29.36
74540;SHT31;66042;51.090;-115.340;2023-09-19T00:40:25;16.05;29.49
74540;SHT31;66042;51.090;-115.340;2023-09-19T00:42:52;15.98;29.52
74540;SHT31;66042;51.090;-115.340;2023-09-19T00:45:27;15.90;29.31
74540;SHT31;66042;51.090;-115.340;2023-09-19T00:47:54;15.85;29.17
74540;SHT31;66042;51.090;-115.340;2023-09-19T00:50:23;15.82;29.14
74540;SHT31;66042;51.090;-115.340;2023-09-19T00:52:54;15.79;29.25
74540;SHT31;66042;51.090;-115.340;2023-09-19T00:55:22;15.76;29.44
74540;SHT31;66042;51.090;-115.340;2023-09-19T00:57:51;15.69;29.73
74540;SHT31;66042;51.090;-115.340;2023-09-19T01:00:21;15.63;30.00
74540;SHT31;66042;51.090;-115.340;2023-09-19T01:02:49;15.57;30.28
74540;SHT31;66042;51.090;-115.340;2023-09-19T01:05:16;15.50;30.57
74540;SHT31;66042;51.090;-115.340;2023-09-19T01:07:43;15.45;30.59
74540;SHT31;66042;51.090;-115.340;2023-09-19T01:10:14;15.37;30.89
74540;SHT31;66042;51.090;-115.340;2023-09-19T01:12:52;15.30;31.24
74540;SHT31;66042;51.090;-115.340;2023-09-19T01:15:28;15.20;31.39
74540;SHT31;66042;51.090;-115.340;2023-09-19T01:32:10;14.76;32.75
74540;SHT31;66042;51.090;-115.340;2023-09-19T01:37:18;14.59;33.26
74540;SHT31;66042;51.090;-115.340;2023-09-19T01:48:05;14.30;34.06
74540;SHT31;66042;51.090;-115.340;2023-09-19T01:56:53;14.07;34.28
74540;SHT31;66042;51.090;-115.340;2023-09-19T01:59:32;13.97;34.34
74540;SHT31;66042;51.090;-115.340;2023-09-19T02:02:17;13.87;34.31
74540;SHT31;66042;51.090;-115.340;2023-09-19T02:04:48;13.81;34.43
74540;SHT31;66042;51.090;-115.340;2023-09-19T02:07:16;13.74;34.43
74540;SHT31;66042;51.090;-115.340;2023-09-19T02:09:43;13.65;34.56
74540;SHT31;66042;51.090;-115.340;2023-09-19T02:12:10;13.56;34.69
74540;SHT31;66042;51.090;-115.340;2023-09-19T02:14:38;13.51;35.00
74540;SHT31;66042;51.090;-115.340;2023-09-19T02:17:05;13.43;34.98
74540;SHT31;66042;51.090;-115.340;2023-09-19T02:19:32;13.38;35.20
74540;SHT31;66042;51.090;-115.340;2023-09-19T02:21:59;13.34;35.40
74540;SHT31;66042;51.090;-115.340;2023-09-19T02:24:33;13.28;35.57
74540;SHT31;66042;51.090;-115.340;2023-09-19T02:27:00;13.23;35.57
74540;SHT31;66042;51.090;-115.340;2023-09-19T02:29:29;13.18;35.66
74540;SHT31;66042;51.090;-115.340;2023-09-19T02:31:56;13.14;35.56
74540;SHT31;66042;51.090;-115.340;2023-09-19T02:34:23;13.08;35.62
74540;SHT31;66042;51.090;-115.340;2023-09-19T02:36:50;13.07;35.61
74540;SHT31;66042;51.090;-115.340;2023-09-19T02:39:21;13.07;35.64
74540;SHT31;66042;51.090;-115.340;2023-09-19T02:41:49;13.07;35.60
74540;SHT31;66042;51.090;-115.340;2023-09-19T02:44:16;13.05;35.66
74540;SHT31;66042;51.090;-115.340;2023-09-19T02:46:45;13.04;35.78
74540;SHT31;66042;51.090;-115.340;2023-09-19T02:49:12;13.03;35.82
74540;SHT31;66042;51.090;-115.340;2023-09-19T02:51:39;13.03;35.88
74540;SHT31;66042;51.090;-115.340;2023-09-19T02:54:07;13.02;36.18
74540;SHT31;66042;51.090;-115.340;2023-09-19T02:56:34;13.03;36.40
74540;SHT31;66042;51.090;-115.340;2023-09-19T02:59:01;13.04;36.52
74540;SHT31;66042;51.090;-115.340;2023-09-19T03:01:28;13.03;36.65
74540;SHT31;66042;51.090;-115.340;2023-09-19T03:03:55;13.03;36.83
74540;SHT31;66042;51.090;-115.340;2023-09-19T03:06:22;13.05;36.97
74540;SHT31;66042;51.090;-115.340;2023-09-19T03:08:50;13.04;37.08
74540;SHT31;66042;51.090;-115.340;2023-09-19T03:11:17;13.01;37.17
74540;SHT31;66042;51.090;-115.340;2023-09-19T03:13:54;13.00;37.30
74540;SHT31;66042;51.090;-115.340;2023-09-19T03:16:21;12.98;37.37
74540;SHT31;66042;51.090;-115.340;2023-09-19T03:18:48;12.95;37.45
74540;SHT31;66042;51.090;-115.340;2023-09-19T03:21:16;12.94;37.64
74540;SHT31;66042;51.090;-115.340;2023-09-19T03:23:44;12.91;37.75
74540;SHT31;66042;51.090;-115.340;2023-09-19T03:26:12;12.88;37.91
74540;SHT31;66042;51.090;-115.340;2023-09-19T03:28:41;12.83;37.98
74540;SHT31;66042;51.090;-115.340;2023-09-19T03:31:09;12.77;38.04
74540;SHT31;66042;51.090;-115.340;2023-09-19T03:33:36;12.73;38.17
74540;SHT31;66042;51.090;-115.340;2023-09-19T03:36:04;12.66;38.27
74540;SHT31;66042;51.090;-115.340;2023-09-19T03:38:31;12.59;38.29
74540;SHT31;66042;51.090;-115.340;2023-09-19T03:41:00;12.49;38.42
74540;SHT31;66042;51.090;-115.340;2023-09-19T03:43:27;12.43;38.65
74540;SHT31;66042;51.090;-115.340;2023-09-19T03:45:54;12.38;38.77
74540;SHT31;66042;51.090;-115.340;2023-09-19T03:48:21;12.37;38.98
74540;SHT31;66042;51.090;-115.340;2023-09-19T03:50:48;12.35;39.02
74540;SHT31;66042;51.090;-115.340;2023-09-19T03:53:15;12.35;39.11
74540;SHT31;66042;51.090;-115.340;2023-09-19T03:55:44;12.35;39.11
74540;SHT31;66042;51.090;-115.340;2023-09-19T03:58:14;12.32;39.19
74540;SHT31;66042;51.090;-115.340;2023-09-19T04:00:40;12.31;39.25
74540;SHT31;66042;51.090;-115.340;2023-09-19T04:03:07;12.27;39.36
74540;SHT31;66042;51.090;-115.340;2023-09-19T04:05:34;12.26;39.41
74540;SHT31;66042;51.090;-115.340;2023-09-19T04:08:01;12.24;39.42
74540;SHT31;66042;51.090;-115.340;2023-09-19T04:10:30;12.22;39.49
74540;SHT31;66042;51.090;-115.340;2023-09-19T04:12:57;12.18;39.51
74540;SHT31;66042;51.090;-115.340;2023-09-19T04:15:24;12.15;39.62
74540;SHT31;66042;51.090;-115.340;2023-09-19T04:17:51;12.07;39.76
74540;SHT31;66042;51.090;-115.340;2023-09-19T04:20:18;11.99;39.96
74540;SHT31;66042;51.090;-115.340;2023-09-19T04:22:48;11.94;40.02
74540;SHT31;66042;51.090;-115.340;2023-09-19T04:25:15;11.83;40.17
74540;SHT31;66042;51.090;-115.340;2023-09-19T04:27:42;11.76;40.31
74540;SHT31;66042;51.090;-115.340;2023-09-19T04:30:12;11.72;40.38
74540;SHT31;66042;51.090;-115.340;2023-09-19T04:32:40;11.67;40.42
74540;SHT31;66042;51.090;-115.340;2023-09-19T04:35:08;11.64;40.57
74540;SHT31;66042;51.090;-115.340;2023-09-19T04:37:39;11.60;40.61
74540;SHT31;66042;51.090;-115.340;2023-09-19T04:40:07;11.54;40.68
74540;SHT31;66042;51.090;-115.340;2023-09-19T04:42:40;11.48;40.74
74540;SHT31;66042;51.090;-115.340;2023-09-19T04:45:07;11.44;40.78
74540;SHT31;66042;51.090;-115.340;2023-09-19T04:47:36;11.39;40.88
74540;SHT31;66042;51.090;-115.340;2023-09-19T04:50:05;11.33;41.05
74540;SHT31;66042;51.090;-115.340;2023-09-19T04:52:38;11.27;41.17
74540;SHT31;66042;51.090;-115.340;2023-09-19T04:55:16;11.15;41.31
74540;SHT31;66042;51.090;-115.340;2023-09-19T04:57:45;11.01;41.66
74540;SHT31;66042;51.090;-115.340;2023-09-19T05:00:18;10.97;41.75
74540;SHT31;66042;51.090;-115.340;2023-09-19T05:02:53;10.93;41.72
74540;SHT31;66042;51.090;-115.340;2023-09-19T05:05:22;10.87;41.82
74540;SHT31;66042;51.090;-115.340;2023-09-19T05:07:50;10.85;41.92
74540;SHT31;66042;51.090;-115.340;2023-09-19T05:10:21;10.81;41.88
74540;SHT31;66042;51.090;-115.340;2023-09-19T05:12:48;10.79;41.96
74540;SHT31;66042;51.090;-115.340;2023-09-19T05:15:19;10.75;41.96
74540;SHT31;66042;51.090;-115.340;2023-09-19T05:17:50;10.68;41.99
74540;SHT31;66042;51.090;-115.340;2023-09-19T05:20:20;10.62;42.11
74540;SHT31;66042;51.090;-115.340;2023-09-19T05:23:01;10.55;42.08
74540;SHT31;66042;51.090;-115.340;2023-09-19T05:25:38;10.48;42.17
74540;SHT31;66042;51.090;-115.340;2023-09-19T05:28:06;10.41;42.22
74540;SHT31;66042;51.090;-115.340;2023-09-19T05:30:37;10.35;42.35
74540;SHT31;66042;51.090;-115.340;2023-09-19T05:33:08;10.30;42.35
74540;SHT31;66042;51.090;-115.340;2023-09-19T05:35:36;10.27;42.52
74540;SHT31;66042;51.090;-115.340;2023-09-19T05:38:05;10.23;42.56
74540;SHT31;66042;51.090;-115.340;2023-09-19T05:40:34;10.20;42.72
74540;SHT31;66042;51.090;-115.340;2023-09-19T05:43:03;10.17;42.85
74540;SHT31;66042;51.090;-115.340;2023-09-19T05:45:31;10.14;42.76
74540;SHT31;66042;51.090;-115.340;2023-09-19T05:48:06;10.12;42.90
74540;SHT31;66042;51.090;-115.340;2023-09-19T05:50:37;10.09;42.92
74540;SHT31;66042;51.090;-115.340;2023-09-19T05:53:05;10.08;43.02
74540;SHT31;66042;51.090;-115.340;2023-09-19T05:55:32;10.07;43.18
74540;SHT31;66042;51.090;-115.340;2023-09-19T05:58:00;10.06;43.11
74540;SHT31;66042;51.090;-115.340;2023-09-19T06:00:29;10.02;43.15
74540;SHT31;66042;51.090;-115.340;2023-09-19T06:02:58;9.94;43.29
74540;SHT31;66042;51.090;-115.340;2023-09-19T06:05:26;9.89;43.53
74540;SHT31;66042;51.090;-115.340;2023-09-19T06:07:55;9.89;43.64
74540;SHT31;66042;51.090;-115.340;2023-09-19T06:10:26;9.89;43.74
74540;SHT31;66042;51.090;-115.340;2023-09-19T06:12:54;9.89;43.80
74540;SHT31;66042;51.090;-115.340;2023-09-19T06:15:23;9.85;43.86
74540;SHT31;66042;51.090;-115.340;2023-09-19T06:17:55;9.84;44.08
74540;SHT31;66042;51.090;-115.340;2023-09-19T06:20:22;9.84;44.16
74540;SHT31;66042;51.090;-115.340;2023-09-19T06:22:50;9.83;44.24
74540;SHT31;66042;51.090;-115.340;2023-09-19T06:25:19;9.77;44.34
74540;SHT31;66042;51.090;-115.340;2023-09-19T06:30:20;9.74;44.38
74540;SHT31;66042;51.090;-115.340;2023-09-19T06:32:57;9.71;44.31
74540;SHT31;66042;51.090;-115.340;2023-09-19T06:35:26;9.62;44.41
74540;SHT31;66042;51.090;-115.340;2023-09-19T06:37:58;9.49;44.61
74540;SHT31;66042;51.090;-115.340;2023-09-19T06:40:28;9.43;44.73
74540;SHT31;66042;51.090;-115.340;2023-09-19T06:42:59;9.35;44.95
74540;SHT31;66042;51.090;-115.340;2023-09-19T06:45:30;9.33;45.02
74540;SHT31;66042;51.090;-115.340;2023-09-19T06:47:57;9.28;45.19
74540;SHT31;66042;51.090;-115.340;2023-09-19T06:50:25;9.25;45.19
74540;SHT31;66042;51.090;-115.340;2023-09-19T06:52:53;9.27;45.33
74540;SHT31;66042;51.090;-115.340;2023-09-19T06:55:22;9.27;45.36
74540;SHT31;66042;51.090;-115.340;2023-09-19T06:57:50;9.28;45.36
74540;SHT31;66042;51.090;-115.340;2023-09-19T07:00:19;9.29;45.41
74540;SHT31;66042;51.090;-115.340;2023-09-19T07:03:05;9.31;45.46
74540;SHT31;66042;51.090;-115.340;2023-09-19T07:05:37;9.33;45.50
74540;SHT31;66042;51.090;-115.340;2023-09-19T07:08:06;9.33;45.45
74540;SHT31;66042;51.090;-115.340;2023-09-19T07:10:36;9.32;45.42
74540;SHT31;66042;51.090;-115.340;2023-09-19T07:13:06;9.31;45.48
74540;SHT31;66042;51.090;-115.340;2023-09-19T07:15:37;9.29;45.54
74540;SHT31;66042;51.090;-115.340;2023-09-19T07:18:12;9.27;45.40
74540;SHT31;66042;51.090;-115.340;2023-09-19T07:20:42;9.20;45.58
74540;SHT31;66042;51.090;-115.340;2023-09-19T07:25:44;9.18;45.77
74540;SHT31;66042;51.090;-115.340;2023-09-19T07:28:11;9.17;45.75
74540;SHT31;66042;51.090;-115.340;2023-09-19T07:30:39;9.14;45.77
74540;SHT31;66042;51.090;-115.340;2023-09-19T07:33:09;9.12;45.84
74540;SHT31;66042;51.090;-115.340;2023-09-19T07:35:40;9.08;45.99
74540;SHT31;66042;51.090;-115.340;2023-09-19T07:38:11;9.03;46.03
74540;SHT31;66042;51.090;-115.340;2023-09-19T07:40:39;8.98;46.13
74540;SHT31;66042;51.090;-115.340;2023-09-19T07:43:05;8.93;46.23
74540;SHT31;66042;51.090;-115.340;2023-09-19T07:45:35;8.92;46.39
74540;SHT31;66042;51.090;-115.340;2023-09-19T07:48:02;8.92;46.44
74540;SHT31;66042;51.090;-115.340;2023-09-19T07:50:39;8.91;46.51
74540;SHT31;66042;51.090;-115.340;2023-09-19T07:53:09;8.93;46.50
74540;SHT31;66042;51.090;-115.340;2023-09-19T07:55:38;8.93;46.49
74540;SHT31;66042;51.090;-115.340;2023-09-19T07:58:06;8.93;46.41
74540;SHT31;66042;51.090;-115.340;2023-09-19T08:00:33;8.91;46.37
74540;SHT31;66042;51.090;-115.340;2023-09-19T08:03:00;8.88;46.44
74540;SHT31;66042;51.090;-115.340;2023-09-19T08:05:29;8.85;46.35
74540;SHT31;66042;51.090;-115.340;2023-09-19T08:07:58;8.82;46.53
74540;SHT31;66042;51.090;-115.340;2023-09-19T08:10:26;8.82;46.58
74540;SHT31;66042;51.090;-115.340;2023-09-19T08:13:00;8.79;46.54
74540;SHT31;66042;51.090;-115.340;2023-09-19T08:15:27;8.73;46.69
74540;SHT31;66042;51.090;-115.340;2023-09-19T08:17:54;8.63;46.80
74540;SHT31;66042;51.090;-115.340;2023-09-19T08:20:21;8.55;47.00
74540;SHT31;66042;51.090;-115.340;2023-09-19T08:22:51;8.52;47.04
74540;SHT31;66042;51.090;-115.340;2023-09-19T08:25:23;8.49;47.27
74540;SHT31;66042;51.090;-115.340;2023-09-19T08:27:54;8.46;47.25
74540;SHT31;66042;51.090;-115.340;2023-09-19T08:30:23;8.45;47.38
74540;SHT31;66042;51.090;-115.340;2023-09-19T08:32:59;8.45;47.50
74540;SHT31;66042;51.090;-115.340;2023-09-19T08:35:27;8.40;47.52
74540;SHT31;66042;51.090;-115.340;2023-09-19T08:37:53;8.37;47.58
74540;SHT31;66042;51.090;-115.340;2023-09-19T08:40:21;8.35;47.47
74540;SHT31;66042;51.090;-115.340;2023-09-19T08:42:52;8.32;47.51
74540;SHT31;66042;51.090;-115.340;2023-09-19T08:45:23;8.23;47.66
74540;SHT31;66042;51.090;-115.340;2023-09-19T08:50:41;8.06;47.88
74540;SHT31;66042;51.090;-115.340;2023-09-19T08:56:29;7.96;48.10
74540;SHT31;66042;51.090;-115.340;2023-09-19T08:59:04;7.95;48.19
74540;SHT31;66042;51.090;-115.340;2023-09-19T09:01:41;7.94;48.27
74540;SHT31;66042;51.090;-115.340;2023-09-19T09:04:09;7.95;48.17
74540;SHT31;66042;51.090;-115.340;2023-09-19T09:06:38;7.96;48.19
74540;SHT31;66042;51.090;-115.340;2023-09-19T09:09:08;7.94;48.23
74540;SHT31;66042;51.090;-115.340;2023-09-19T09:11:36;7.91;48.28
74540;SHT31;66042;51.090;-115.340;2023-09-19T09:14:05;7.89;48.39
74540;SHT31;66042;51.090;-115.340;2023-09-19T09:16:33;7.84;48.46
74540;SHT31;66042;51.090;-115.340;2023-09-19T09:19:00;7.81;48.52
74540;SHT31;66042;51.090;-115.340;2023-09-19T09:21:27;7.78;48.48
74540;SHT31;66042;51.090;-115.340;2023-09-19T09:23:54;7.78;48.43
74540;SHT31;66042;51.090;-115.340;2023-09-19T09:29:12;7.66;48.67
74540;SHT31;66042;51.090;-115.340;2023-09-19T09:31:40;7.57;48.87
74540;SHT31;66042;51.090;-115.340;2023-09-19T09:34:08;7.52;48.77
74540;SHT31;66042;51.090;-115.340;2023-09-19T09:36:39;7.51;48.82
74540;SHT31;66042;51.090;-115.340;2023-09-19T09:39:07;7.49;48.97
74540;SHT31;66042;51.090;-115.340;2023-09-19T09:41:50;7.45;49.02
74540;SHT31;66042;51.090;-115.340;2023-09-19T09:44:17;7.45;49.04
74540;SHT31;66042;51.090;-115.340;2023-09-19T09:46:45;7.48;49.02
74540;SHT31;66042;51.090;-115.340;2023-09-19T09:49:23;7.54;48.98
74540;SHT31;66042;51.090;-115.340;2023-09-19T09:52:03;7.57;48.79
74540;SHT31;66042;51.090;-115.340;2023-09-19T09:55:03;7.54;48.84
74540;SHT31;66042;51.090;-115.340;2023-09-19T09:57:31;7.56;48.89
74540;SHT31;66042;51.090;-115.340;2023-09-19T10:00:00;7.55;48.87
74540;SHT31;66042;51.090;-115.340;2023-09-19T10:02:37;7.55;48.74
74540;SHT31;66042;51.090;-115.340;2023-09-19T10:05:19;7.49;48.79
74540;SHT31;66042;51.090;-115.340;2023-09-19T10:08:12;7.51;48.64
74540;SHT31;66042;51.090;-115.340;2023-09-19T10:10:44;7.47;48.54
74540;SHT31;66042;51.090;-115.340;2023-09-19T10:13:18;7.40;48.46
74540;SHT31;66042;51.090;-115.340;2023-09-19T10:15:51;7.39;48.62
74540;SHT31;66042;51.090;-115.340;2023-09-19T10:18:21;7.36;48.57
74540;SHT31;66042;51.090;-115.340;2023-09-19T10:20:53;7.34;48.55
74540;SHT31;66042;51.090;-115.340;2023-09-19T10:23:21;7.30;48.51
74540;SHT31;66042;51.090;-115.340;2023-09-19T10:25:49;7.26;48.43
74540;SHT31;66042;51.090;-115.340;2023-09-19T10:28:18;7.24;48.45
74540;SHT31;66042;51.090;-115.340;2023-09-19T10:30:49;7.22;48.42
74540;SHT31;66042;51.090;-115.340;2023-09-19T10:33:21;7.16;48.43
74540;SHT31;66042;51.090;-115.340;2023-09-19T10:35:53;7.15;48.55
74540;SHT31;66042;51.090;-115.340;2023-09-19T10:38:25;7.12;48.48
74540;SHT31;66042;51.090;-115.340;2023-09-19T10:40:55;7.07;48.58
74540;SHT31;66042;51.090;-115.340;2023-09-19T10:43:26;7.04;48.68
74540;SHT31;66042;51.090;-115.340;2023-09-19T10:46:01;7.00;48.77
74540;SHT31;66042;51.090;-115.340;2023-09-19T10:48:37;6.97;48.85
74540;SHT31;66042;51.090;-115.340;2023-09-19T10:51:08;6.97;48.90
74540;SHT31;66042;51.090;-115.340;2023-09-19T10:54:22;6.94;48.94
74540;SHT31;66042;51.090;-115.340;2023-09-19T10:56:52;6.90;48.90
74540;SHT31;66042;51.090;-115.340;2023-09-19T10:59:22;6.82;49.00
74540;SHT31;66042;51.090;-115.340;2023-09-19T11:01:53;6.71;49.30
74540;SHT31;66042;51.090;-115.340;2023-09-19T11:04:29;6.65;49.53
74540;SHT31;66042;51.090;-115.340;2023-09-19T11:07:05;6.64;49.70
74540;SHT31;66042;51.090;-115.340;2023-09-19T11:09:54;6.68;49.65
74540;SHT31;66042;51.090;-115.340;2023-09-19T11:15:04;6.64;49.56
74540;SHT31;66042;51.090;-115.340;2023-09-19T11:17:34;6.63;49.68
74540;SHT31;66042;51.090;-115.340;2023-09-19T11:30:41;6.36;50.29
74540;SHT31;66042;51.090;-115.340;2023-09-19T11:36:03;6.30;50.35
74540;SHT31;66042;51.090;-115.340;2023-09-19T11:46:54;6.00;50.90
74540;SHT31;66042;51.090;-115.340;2023-09-19T11:49:30;5.97;50.99
74540;SHT31;66042;51.090;-115.340;2023-09-19T11:52:02;5.90;51.25
74540;SHT31;66042;51.090;-115.340;2023-09-19T11:54:35;5.91;51.34
74540;SHT31;66042;51.090;-115.340;2023-09-19T11:57:06;5.97;51.22
74540;SHT31;66042;51.090;-115.340;2023-09-19T11:59:38;6.01;51.19
74540;SHT31;66042;51.090;-115.340;2023-09-19T12:02:05;6.08;51.17
74540;SHT31;66042;51.090;-115.340;2023-09-19T12:07:09;6.14;50.98
74540;SHT31;66042;51.090;-115.340;2023-09-19T12:09:46;6.16;50.82
74540;SHT31;66042;51.090;-115.340;2023-09-19T12:12:19;6.15;50.68
74540;SHT31;66042;51.090;-115.340;2023-09-19T12:15:01;6.14;50.76
74540;SHT31;66042;51.090;-115.340;2023-09-19T12:17:35;6.15;50.59
74540;SHT31;66042;51.090;-115.340;2023-09-19T12:20:08;6.13;50.57
74540;SHT31;66042;51.090;-115.340;2023-09-19T12:22:43;6.09;50.47
74540;SHT31;66042;51.090;-115.340;2023-09-19T12:25:15;6.05;50.57
74540;SHT31;66042;51.090;-115.340;2023-09-19T12:27:44;5.99;50.71
74540;SHT31;66042;51.090;-115.340;2023-09-19T12:30:13;5.95;50.95
74540;SHT31;66042;51.090;-115.340;2023-09-19T12:32:43;5.93;50.99
74540;SHT31;66042;51.090;-115.340;2023-09-19T12:35:26;5.87;51.02
74540;SHT31;66042;51.090;-115.340;2023-09-19T12:38:00;5.88;51.03
74540;SHT31;66042;51.090;-115.340;2023-09-19T12:40:28;5.90;51.08
74540;SHT31;66042;51.090;-115.340;2023-09-19T12:42:58;5.92;50.94
74540;SHT31;66042;51.090;-115.340;2023-09-19T12:45:29;5.91;50.83
74540;SHT31;66042;51.090;-115.340;2023-09-19T12:51:06;5.84;51.14
74540;SHT31;66042;51.090;-115.340;2023-09-19T12:53:41;5.80;51.07
74540;SHT31;66042;51.090;-115.340;2023-09-19T12:56:16;5.78;51.19
74540;SHT31;66042;51.090;-115.340;2023-09-19T12:58:56;5.81;51.09
74540;SHT31;66042;51.090;-115.340;2023-09-19T13:01:28;5.81;50.99
74540;SHT31;66042;51.090;-115.340;2023-09-19T13:04:14;5.81;51.00
74540;SHT31;66042;51.090;-115.340;2023-09-19T13:06:49;5.80;50.96
74540;SHT31;66042;51.090;-115.340;2023-09-19T13:09:17;5.76;50.78
74540;SHT31;66042;51.090;-115.340;2023-09-19T13:11:46;5.64;51.09
74540;SHT31;66042;51.090;-115.340;2023-09-19T13:14:19;5.64;51.14
74540;SHT31;66042;51.090;-115.340;2023-09-19T13:16:58;5.63;51.10
74540;SHT31;66042;51.090;-115.340;2023-09-19T13:25:20;5.54;51.04
74540;SHT31;66042;51.090;-115.340;2023-09-19T13:27:51;5.51;50.96
74540;SHT31;66042;51.090;-115.340;2023-09-19T13:30:24;5.49;51.10
74540;SHT31;66042;51.090;-115.340;2023-09-19T13:33:04;5.46;51.21
74540;SHT31;66042;51.090;-115.340;2023-09-19T13:35:33;5.43;51.18
74540;SHT31;66042;51.090;-115.340;2023-09-19T13:38:00;5.39;51.41
74540;SHT31;66042;51.090;-115.340;2023-09-19T13:40:26;5.37;51.54
74540;SHT31;66042;51.090;-115.340;2023-09-19T13:43:00;5.39;51.44
74540;SHT31;66042;51.090;-115.340;2023-09-19T13:45:27;5.38;51.38
74540;SHT31;66042;51.090;-115.340;2023-09-19T13:47:56;5.39;51.38
74540;SHT31;66042;51.090;-115.340;2023-09-19T13:50:24;5.39;51.42
74540;SHT31;66042;51.090;-115.340;2023-09-19T13:52:54;5.36;51.55
74540;SHT31;66042;51.090;-115.340;2023-09-19T13:55:21;5.29;51.72
74540;SHT31;66042;51.090;-115.340;2023-09-19T13:57:50;5.28;51.79
74540;SHT31;66042;51.090;-115.340;2023-09-19T14:00:20;5.29;51.79
74540;SHT31;66042;51.090;-115.340;2023-09-19T14:02:48;5.24;51.82
74540;SHT31;66042;51.090;-115.340;2023-09-19T14:05:16;5.20;51.97
74540;SHT31;66042;51.090;-115.340;2023-09-19T14:07:44;5.22;52.03
74540;SHT31;66042;51.090;-115.340;2023-09-19T14:10:11;5.23;52.09
74540;SHT31;66042;51.090;-115.340;2023-09-19T14:12:39;5.23;52.13
74540;SHT31;66042;51.090;-115.340;2023-09-19T14:15:10;5.20;52.11
74540;SHT31;66042;51.090;-115.340;2023-09-19T14:17:37;5.16;52.25
74540;SHT31;66042;51.090;-115.340;2023-09-19T14:20:07;5.14;52.31
74540;SHT31;66042;51.090;-115.340;2023-09-19T14:22:36;5.14;52.35
74540;SHT31;66042;51.090;-115.340;2023-09-19T14:25:03;5.16;52.24
74540;SHT31;66042;51.090;-115.340;2023-09-19T14:27:31;5.19;52.25
74540;SHT31;66042;51.090;-115.340;2023-09-19T14:29:58;5.21;52.23
74540;SHT31;66042;51.090;-115.340;2023-09-19T14:32:25;5.16;52.42
74540;SHT31;66042;51.090;-115.340;2023-09-19T14:34:52;5.11;52.48
74540;SHT31;66042;51.090;-115.340;2023-09-19T14:37:19;5.09;52.50
74540;SHT31;66042;51.090;-115.340;2023-09-19T14:39:48;4.89;53.11
74540;SHT31;66042;51.090;-115.340;2023-09-19T14:42:15;4.75;53.41
74540;SHT31;66042;51.090;-115.340;2023-09-19T14:44:43;4.80;53.44
74540;SHT31;66042;51.090;-115.340;2023-09-19T14:47:10;4.88;53.24
74540;SHT31;66042;51.090;-115.340;2023-09-19T14:49:39;4.98;53.23
74540;SHT31;66042;51.090;-115.340;2023-09-19T14:52:07;5.09;53.02
74540;SHT31;66042;51.090;-115.340;2023-09-19T14:54:36;5.18;52.93
74540;SHT31;66042;51.090;-115.340;2023-09-19T14:57:06;5.25;52.65
74540;SHT31;66042;51.090;-115.340;2023-09-19T14:59:35;5.30;52.63
74540;SHT31;66042;51.090;-115.340;2023-09-19T15:02:05;5.35;52.68
74540;SHT31;66042;51.090;-115.340;2023-09-19T15:04:33;5.40;52.58
74540;SHT31;66042;51.090;-115.340;2023-09-19T15:07:00;5.44;52.34
74540;SHT31;66042;51.090;-115.340;2023-09-19T15:09:28;5.47;52.20
74540;SHT31;66042;51.090;-115.340;2023-09-19T15:11:57;5.49;52.35
74540;SHT31;66042;51.090;-115.340;2023-09-19T15:14:24;5.50;52.15
74540;SHT31;66042;51.090;-115.340;2023-09-19T15:16:51;5.53;52.18
74540;SHT31;66042;51.090;-115.340;2023-09-19T15:19:18;5.55;52.16
74540;SHT31;66042;51.090;-115.340;2023-09-19T15:21:45;5.56;52.11
74540;SHT31;66042;51.090;-115.340;2023-09-19T15:24:12;5.55;52.42
74540;SHT31;66042;51.090;-115.340;2023-09-19T15:26:40;5.56;52.27
74540;SHT31;66042;51.090;-115.340;2023-09-19T15:29:09;5.61;52.19
74540;SHT31;66042;51.090;-115.340;2023-09-19T15:31:36;5.63;52.35
74540;SHT31;66042;51.090;-115.340;2023-09-19T15:34:03;5.63;52.62
74540;SHT31;66042;51.090;-115.340;2023-09-19T15:36:33;5.61;52.78
74540;SHT31;66042;51.090;-115.340;2023-09-19T15:39:00;5.55;53.01
74540;SHT31;66042;51.090;-115.340;2023-09-19T15:41:32;5.59;52.80
74540;SHT31;66042;51.090;-115.340;2023-09-19T15:44:04;5.66;53.07
74540;SHT31;66042;51.090;-115.340;2023-09-19T15:46:38;5.73;53.00
74540;SHT31;66042;51.090;-115.340;2023-09-19T15:49:06;5.82;52.76
74540;SHT31;66042;51.090;-115.340;2023-09-19T15:51:34;5.91;52.51
74540;SHT31;66042;51.090;-115.340;2023-09-19T15:54:01;5.99;52.57
74540;SHT31;66042;51.090;-115.340;2023-09-19T15:56:34;6.06;52.37
74540;SHT31;66042;51.090;-115.340;2023-09-19T15:59:01;6.12;52.32
74540;SHT31;66042;51.090;-115.340;2023-09-19T16:01:28;6.19;52.04
74540;SHT31;66042;51.090;-115.340;2023-09-19T16:03:55;6.30;51.79
74540;SHT31;66042;51.090;-115.340;2023-09-19T16:06:31;6.38;51.45
74540;SHT31;66042;51.090;-115.340;2023-09-19T16:08:58;6.47;51.43
74540;SHT31;66042;51.090;-115.340;2023-09-19T16:11:29;6.53;51.49
74540;SHT31;66042;51.090;-115.340;2023-09-19T16:13:59;6.59;51.22
74540;SHT31;66042;51.090;-115.340;2023-09-19T16:16:26;6.66;51.55
74540;SHT31;66042;51.090;-115.340;2023-09-19T16:18:59;6.71;51.90
74540;SHT31;66042;51.090;-115.340;2023-09-19T16:21:33;6.78;51.56
74540;SHT31;66042;51.090;-115.340;2023-09-19T16:24:00;6.85;51.66
74540;SHT31;66042;51.090;-115.340;2023-09-19T16:26:28;6.92;51.56
74540;SHT31;66042;51.090;-115.340;2023-09-19T16:28:57;6.91;51.63
74540;SHT31;66042;51.090;-115.340;2023-09-19T16:31:28;6.97;51.28
74540;SHT31;66042;51.090;-115.340;2023-09-19T16:34:00;7.05;51.39
74540;SHT31;66042;51.090;-115.340;2023-09-19T16:36:28;7.09;50.95